sensor_id;sensor_type;location;lat;lon;timestamp;P1;durP1;ratioP1;P2;durP2;ratioP2
9467;SDS011;4772;52.382;9.752;2022-12-29T00:01:46;3.30;;;2.10;;
9467;SDS011;4772;52.382;9.752;2022-12-29T00:04:12;2.33;;;1.80;;
9467;SDS011;4772;52.382;9.752;2022-12-29T00:06:39;3.37;;;1.93;;
9467;SDS011;4772;52.382;9.752;2022-12-29T00:09:05;2.17;;;1.97;;
9467;SDS011;4772;52.382;9.752;2022-12-29T00:11:31;2.53;;;2.07;;
9467;SDS011;4772;52.382;9.752;2022-12-29T00:13:57;1.80;;;1.70;;
9467;SDS011;4772;52.382;9.752;2022-12-29T00:16:42;2.67;;;1.80;;
9467;SDS011;4772;52.382;9.752;2022-12-29T00:19:08;2.00;;;1.40;;
9467;SDS011;4772;52.382;9.752;2022-12-29T00:21:54;1.60;;;1.50;;
9467;SDS011;4772;52.382;9.752;2022-12-29T00:24:39;2.03;;;1.67;;
9467;SDS011;4772;52.382;9.752;2022-12-29T00:27:25;1.70;;;1.60;;
9467;SDS011;4772;52.382;9.752;2022-12-29T00:30:10;2.70;;;1.57;;
9467;SDS011;4772;52.382;9.752;2022-12-29T00:32:55;2.60;;;1.73;;
9467;SDS011;4772;52.382;9.752;2022-12-29T00:35:53;2.53;;;1.60;;
9467;SDS011;4772;52.382;9.752;2022-12-29T00:38:20;1.53;;;1.43;;
9467;SDS011;4772;52.382;9.752;2022-12-29T00:41:05;1.87;;;1.50;;
9467;SDS011;4772;52.382;9.752;2022-12-29T00:43:50;1.80;;;1.70;;
9467;SDS011;4772;52.382;9.752;2022-12-29T00:46:38;4.13;;;1.60;;
9467;SDS011;4772;52.382;9.752;2022-12-29T00:49:05;1.77;;;1.23;;
9467;SDS011;4772;52.382;9.752;2022-12-29T00:51:51;2.47;;;1.70;;
9467;SDS011;4772;52.382;9.752;2022-12-29T00:54:17;1.67;;;1.50;;
9467;SDS011;4772;52.382;9.752;2022-12-29T00:56:45;1.70;;;1.60;;
9467;SDS011;4772;52.382;9.752;2022-12-29T00:59:11;2.67;;;1.53;;
9467;SDS011;4772;52.382;9.752;2022-12-29T01:01:38;2.17;;;1.40;;
9467;SDS011;4772;52.382;9.752;2022-12-29T01:04:04;1.60;;;1.50;;
9467;SDS011;4772;52.382;9.752;2022-12-29T01:06:30;2.37;;;1.60;;
9467;SDS011;4772;52.382;9.752;2022-12-29T01:08:57;1.70;;;1.60;;
9467;SDS011;4772;52.382;9.752;2022-12-29T01:11:41;1.70;;;1.60;;
9467;SDS011;4772;52.382;9.752;2022-12-29T01:14:08;3.23;;;1.50;;
9467;SDS011;4772;52.382;9.752;2022-12-29T01:16:34;1.40;;;1.30;;
9467;SDS011;4772;52.382;9.752;2022-12-29T01:19:01;1.93;;;1.50;;
9467;SDS011;4772;52.382;9.752;2022-12-29T01:21:27;2.83;;;1.90;;
9467;SDS011;4772;52.382;9.752;2022-12-29T01:23:53;2.07;;;1.50;;
9467;SDS011;4772;52.382;9.752;2022-12-29T01:26:19;4.20;;;1.80;;
9467;SDS011;4772;52.382;9.752;2022-12-29T01:28:45;2.50;;;1.60;;
9467;SDS011;4772;52.382;9.752;2022-12-29T01:31:12;2.50;;;1.33;;
9467;SDS011;4772;52.382;9.752;2022-12-29T01:33:38;2.33;;;1.40;;
9467;SDS011;4772;52.382;9.752;2022-12-29T01:36:05;2.00;;;1.80;;
9467;SDS011;4772;52.382;9.752;2022-12-29T01:38:32;2.20;;;1.50;;
9467;SDS011;4772;52.382;9.752;2022-12-29T01:40:58;1.60;;;1.50;;
9467;SDS011;4772;52.382;9.752;2022-12-29T01:48:55;1.93;;;1.60;;
9467;SDS011;4772;52.382;9.752;2022-12-29T01:51:24;2.80;;;1.57;;
9467;SDS011;4772;52.382;9.752;2022-12-29T01:53:50;2.23;;;1.77;;
9467;SDS011;4772;52.382;9.752;2022-12-29T01:56:17;1.50;;;1.40;;
9467;SDS011;4772;52.382;9.752;2022-12-29T01:58:46;1.70;;;1.40;;
9467;SDS011;4772;52.382;9.752;2022-12-29T02:01:14;1.40;;;1.30;;
9467;SDS011;4772;52.382;9.752;2022-12-29T02:03:41;1.50;;;1.40;;
9467;SDS011;4772;52.382;9.752;2022-12-29T02:08:33;1.90;;;1.53;;
9467;SDS011;4772;52.382;9.752;2022-12-29T02:11:00;1.93;;;1.70;;
9467;SDS011;4772;52.382;9.752;2022-12-29T02:13:27;1.50;;;1.40;;
9467;SDS011;4772;52.382;9.752;2022-12-29T02:15:56;1.87;;;1.53;;
9467;SDS011;4772;52.382;9.752;2022-12-29T02:18:37;1.97;;;1.50;;
9467;SDS011;4772;52.382;9.752;2022-12-29T02:34:00;1.70;;;1.60;;
9467;SDS011;4772;52.382;9.752;2022-12-29T02:36:37;1.53;;;1.43;;
9467;SDS011;4772;52.382;9.752;2022-12-29T02:42:03;3.20;;;1.80;;
9467;SDS011;4772;52.382;9.752;2022-12-29T02:45:15;2.40;;;1.50;;
9467;SDS011;4772;52.382;9.752;2022-12-29T02:47:31;2.53;;;1.47;;
9467;SDS011;4772;52.382;9.752;2022-12-29T02:52:32;1.67;;;1.40;;
9467;SDS011;4772;52.382;9.752;2022-12-29T02:54:59;2.63;;;1.40;;
9467;SDS011;4772;52.382;9.752;2022-12-29T02:59:53;1.53;;;1.43;;
9467;SDS011;4772;52.382;9.752;2022-12-29T03:02:26;1.50;;;1.40;;
9467;SDS011;4772;52.382;9.752;2022-12-29T03:07:56;1.20;;;1.20;;
9467;SDS011;4772;52.382;9.752;2022-12-29T03:12:56;1.50;;;1.37;;
9467;SDS011;4772;52.382;9.752;2022-12-29T03:15:52;1.10;;;1.10;;
9467;SDS011;4772;52.382;9.752;2022-12-29T03:18:37;1.57;;;1.20;;
9467;SDS011;4772;52.382;9.752;2022-12-29T03:21:12;1.90;;;1.10;;
9467;SDS011;4772;52.382;9.752;2022-12-29T03:23:40;1.97;;;1.60;;
9467;SDS011;4772;52.382;9.752;2022-12-29T03:26:08;1.80;;;1.30;;
9467;SDS011;4772;52.382;9.752;2022-12-29T03:28:36;1.00;;;1.00;;
9467;SDS011;4772;52.382;9.752;2022-12-29T03:31:03;1.50;;;1.20;;
9467;SDS011;4772;52.382;9.752;2022-12-29T03:33:30;2.07;;;1.20;;
9467;SDS011;4772;52.382;9.752;2022-12-29T03:35:58;2.10;;;1.20;;
9467;SDS011;4772;52.382;9.752;2022-12-29T03:38:27;1.37;;;1.27;;
9467;SDS011;4772;52.382;9.752;2022-12-29T03:40:56;1.20;;;1.10;;
9467;SDS011;4772;52.382;9.752;2022-12-29T03:43:23;1.57;;;1.47;;
9467;SDS011;4772;52.382;9.752;2022-12-29T03:45:50;2.07;;;1.20;;
9467;SDS011;4772;52.382;9.752;2022-12-29T03:48:16;1.27;;;1.17;;
9467;SDS011;4772;52.382;9.752;2022-12-29T03:50:42;1.47;;;1.00;;
9467;SDS011;4772;52.382;9.752;2022-12-29T03:53:08;1.53;;;1.00;;
9467;SDS011;4772;52.382;9.752;2022-12-29T03:55:34;2.73;;;1.30;;
9467;SDS011;4772;52.382;9.752;2022-12-29T03:58:00;1.40;;;1.00;;
9467;SDS011;4772;52.382;9.752;2022-12-29T04:00:26;1.17;;;1.10;;
9467;SDS011;4772;52.382;9.752;2022-12-29T04:02:53;1.60;;;1.00;;
9467;SDS011;4772;52.382;9.752;2022-12-29T04:05:19;1.73;;;1.10;;
9467;SDS011;4772;52.382;9.752;2022-12-29T04:07:45;1.43;;;1.10;;
9467;SDS011;4772;52.382;9.752;2022-12-29T04:10:11;1.17;;;1.03;;
9467;SDS011;4772;52.382;9.752;2022-12-29T04:12:37;1.10;;;1.00;;
9467;SDS011;4772;52.382;9.752;2022-12-29T04:15:03;1.13;;;1.10;;
9467;SDS011;4772;52.382;9.752;2022-12-29T04:17:29;0.90;;;0.90;;
9467;SDS011;4772;52.382;9.752;2022-12-29T04:19:56;0.70;;;0.70;;
9467;SDS011;4772;52.382;9.752;2022-12-29T04:22:41;1.17;;;1.00;;
9467;SDS011;4772;52.382;9.752;2022-12-29T04:25:07;2.60;;;1.00;;
9467;SDS011;4772;52.382;9.752;2022-12-29T04:27:34;1.30;;;1.00;;
9467;SDS011;4772;52.382;9.752;2022-12-29T04:29:59;1.47;;;1.00;;
9467;SDS011;4772;52.382;9.752;2022-12-29T04:32:25;0.87;;;0.87;;
9467;SDS011;4772;52.382;9.752;2022-12-29T04:34:51;1.07;;;0.90;;
9467;SDS011;4772;52.382;9.752;2022-12-29T04:37:17;0.80;;;0.80;;
9467;SDS011;4772;52.382;9.752;2022-12-29T04:39:43;1.00;;;1.00;;
9467;SDS011;4772;52.382;9.752;2022-12-29T04:42:09;0.77;;;0.77;;
9467;SDS011;4772;52.382;9.752;2022-12-29T04:44:35;1.40;;;1.00;;
9467;SDS011;4772;52.382;9.752;2022-12-29T04:47:01;1.40;;;1.00;;
9467;SDS011;4772;52.382;9.752;2022-12-29T04:49:27;0.80;;;0.80;;
9467;SDS011;4772;52.382;9.752;2022-12-29T04:51:53;1.10;;;0.93;;
9467;SDS011;4772;52.382;9.752;2022-12-29T04:54:19;1.10;;;0.90;;
9467;SDS011;4772;52.382;9.752;2022-12-29T04:56:45;2.40;;;0.80;;
9467;SDS011;4772;52.382;9.752;2022-12-29T04:59:11;1.90;;;1.10;;
9467;SDS011;4772;52.382;9.752;2022-12-29T05:01:37;2.27;;;1.17;;
9467;SDS011;4772;52.382;9.752;2022-12-29T05:04:03;1.33;;;1.00;;
9467;SDS011;4772;52.382;9.752;2022-12-29T05:06:29;1.13;;;0.90;;
9467;SDS011;4772;52.382;9.752;2022-12-29T05:08:55;2.77;;;1.10;;
9467;SDS011;4772;52.382;9.752;2022-12-29T05:11:21;1.07;;;0.90;;
9467;SDS011;4772;52.382;9.752;2022-12-29T05:13:47;1.30;;;1.10;;
9467;SDS011;4772;52.382;9.752;2022-12-29T05:16:13;0.90;;;0.90;;
9467;SDS011;4772;52.382;9.752;2022-12-29T05:18:39;1.07;;;0.90;;
9467;SDS011;4772;52.382;9.752;2022-12-29T05:21:05;1.03;;;0.90;;
9467;SDS011;4772;52.382;9.752;2022-12-29T05:23:31;1.10;;;0.90;;
9467;SDS011;4772;52.382;9.752;2022-12-29T05:25:57;1.33;;;1.00;;
9467;SDS011;4772;52.382;9.752;2022-12-29T05:28:23;0.90;;;0.90;;
9467;SDS011;4772;52.382;9.752;2022-12-29T05:30:49;0.87;;;0.87;;
9467;SDS011;4772;52.382;9.752;2022-12-29T05:33:16;0.97;;;0.87;;
9467;SDS011;4772;52.382;9.752;2022-12-29T05:35:42;0.90;;;0.90;;
9467;SDS011;4772;52.382;9.752;2022-12-29T05:38:08;1.63;;;0.93;;
9467;SDS011;4772;52.382;9.752;2022-12-29T05:40:34;1.20;;;0.90;;
9467;SDS011;4772;52.382;9.752;2022-12-29T05:43:00;0.90;;;0.90;;
9467;SDS011;4772;52.382;9.752;2022-12-29T05:45:26;1.10;;;1.10;;
9467;SDS011;4772;52.382;9.752;2022-12-29T05:47:52;1.57;;;1.47;;
9467;SDS011;4772;52.382;9.752;2022-12-29T05:50:18;1.43;;;1.33;;
9467;SDS011;4772;52.382;9.752;2022-12-29T05:52:44;0.90;;;0.90;;
9467;SDS011;4772;52.382;9.752;2022-12-29T05:55:10;1.03;;;0.77;;
9467;SDS011;4772;52.382;9.752;2022-12-29T05:57:36;1.77;;;0.83;;
9467;SDS011;4772;52.382;9.752;2022-12-29T06:00:03;1.10;;;1.00;;
9467;SDS011;4772;52.382;9.752;2022-12-29T06:02:29;1.77;;;1.10;;
9467;SDS011;4772;52.382;9.752;2022-12-29T06:04:55;1.07;;;0.97;;
9467;SDS011;4772;52.382;9.752;2022-12-29T06:07:21;0.87;;;0.87;;
9467;SDS011;4772;52.382;9.752;2022-12-29T06:09:47;1.07;;;0.83;;
9467;SDS011;4772;52.382;9.752;2022-12-29T06:12:13;1.00;;;1.00;;
9467;SDS011;4772;52.382;9.752;2022-12-29T06:14:39;0.90;;;0.90;;
9467;SDS011;4772;52.382;9.752;2022-12-29T06:17:05;0.83;;;0.83;;
9467;SDS011;4772;52.382;9.752;2022-12-29T06:19:31;1.10;;;1.03;;
9467;SDS011;4772;52.382;9.752;2022-12-29T06:21:57;1.87;;;0.90;;
9467;SDS011;4772;52.382;9.752;2022-12-29T06:24:23;0.90;;;0.90;;
9467;SDS011;4772;52.382;9.752;2022-12-29T06:26:49;1.17;;;1.07;;
9467;SDS011;4772;52.382;9.752;2022-12-29T06:29:15;1.20;;;1.00;;
9467;SDS011;4772;52.382;9.752;2022-12-29T06:31:42;1.07;;;1.07;;
9467;SDS011;4772;52.382;9.752;2022-12-29T06:34:10;0.93;;;0.93;;
9467;SDS011;4772;52.382;9.752;2022-12-29T06:36:36;1.20;;;1.10;;
9467;SDS011;4772;52.382;9.752;2022-12-29T06:39:02;0.87;;;0.83;;
9467;SDS011;4772;52.382;9.752;2022-12-29T06:41:28;1.03;;;1.00;;
9467;SDS011;4772;52.382;9.752;2022-12-29T06:43:54;2.00;;;1.00;;
9467;SDS011;4772;52.382;9.752;2022-12-29T06:46:20;1.00;;;1.00;;
9467;SDS011;4772;52.382;9.752;2022-12-29T06:48:46;0.90;;;0.90;;
9467;SDS011;4772;52.382;9.752;2022-12-29T06:51:12;0.83;;;0.80;;
9467;SDS011;4772;52.382;9.752;2022-12-29T06:53:38;0.90;;;0.90;;
9467;SDS011;4772;52.382;9.752;2022-12-29T06:56:04;1.13;;;0.97;;
9467;SDS011;4772;52.382;9.752;2022-12-29T06:58:30;1.00;;;1.00;;
9467;SDS011;4772;52.382;9.752;2022-12-29T07:00:56;1.60;;;0.90;;
9467;SDS011;4772;52.382;9.752;2022-12-29T07:03:22;0.93;;;0.80;;
9467;SDS011;4772;52.382;9.752;2022-12-29T07:05:48;1.07;;;0.97;;
9467;SDS011;4772;52.382;9.752;2022-12-29T07:08:14;0.70;;;0.70;;
9467;SDS011;4772;52.382;9.752;2022-12-29T07:10:40;0.70;;;0.70;;
9467;SDS011;4772;52.382;9.752;2022-12-29T07:13:07;1.00;;;0.70;;
9467;SDS011;4772;52.382;9.752;2022-12-29T07:15:34;0.60;;;0.60;;
9467;SDS011;4772;52.382;9.752;2022-12-29T07:18:00;1.10;;;0.93;;
9467;SDS011;4772;52.382;9.752;2022-12-29T07:20:26;1.43;;;0.80;;
9467;SDS011;4772;52.382;9.752;2022-12-29T07:22:52;1.17;;;0.87;;
9467;SDS011;4772;52.382;9.752;2022-12-29T07:25:18;3.23;;;1.10;;
9467;SDS011;4772;52.382;9.752;2022-12-29T07:27:44;5.97;;;1.10;;
9467;SDS011;4772;52.382;9.752;2022-12-29T07:30:10;3.70;;;1.20;;
9467;SDS011;4772;52.382;9.752;2022-12-29T07:32:36;0.93;;;0.63;;
9467;SDS011;4772;52.382;9.752;2022-12-29T07:35:02;1.57;;;0.70;;
9467;SDS011;4772;52.382;9.752;2022-12-29T07:37:28;2.90;;;0.90;;
9467;SDS011;4772;52.382;9.752;2022-12-29T07:39:54;1.00;;;0.70;;
9467;SDS011;4772;52.382;9.752;2022-12-29T07:42:20;0.83;;;0.73;;
9467;SDS011;4772;52.382;9.752;2022-12-29T07:44:46;2.13;;;0.80;;
9467;SDS011;4772;52.382;9.752;2022-12-29T07:47:12;1.03;;;0.90;;
9467;SDS011;4772;52.382;9.752;2022-12-29T07:49:38;1.87;;;0.90;;
9467;SDS011;4772;52.382;9.752;2022-12-29T07:52:04;0.80;;;0.80;;
9467;SDS011;4772;52.382;9.752;2022-12-29T07:54:30;1.00;;;0.80;;
9467;SDS011;4772;52.382;9.752;2022-12-29T07:56:56;1.43;;;1.10;;
9467;SDS011;4772;52.382;9.752;2022-12-29T07:59:25;1.70;;;1.00;;
9467;SDS011;4772;52.382;9.752;2022-12-29T08:01:51;1.87;;;1.20;;
9467;SDS011;4772;52.382;9.752;2022-12-29T08:04:17;1.30;;;1.20;;
9467;SDS011;4772;52.382;9.752;2022-12-29T08:06:43;1.00;;;1.00;;
9467;SDS011;4772;52.382;9.752;2022-12-29T08:09:10;1.30;;;0.93;;
9467;SDS011;4772;52.382;9.752;2022-12-29T08:11:36;0.87;;;0.87;;
9467;SDS011;4772;52.382;9.752;2022-12-29T08:14:03;1.33;;;0.90;;
9467;SDS011;4772;52.382;9.752;2022-12-29T08:16:29;1.23;;;0.90;;
9467;SDS011;4772;52.382;9.752;2022-12-29T08:18:56;1.07;;;0.90;;
9467;SDS011;4772;52.382;9.752;2022-12-29T08:21:22;2.53;;;1.33;;
9467;SDS011;4772;52.382;9.752;2022-12-29T08:23:48;1.27;;;1.17;;
9467;SDS011;4772;52.382;9.752;2022-12-29T08:26:14;2.67;;;1.23;;
9467;SDS011;4772;52.382;9.752;2022-12-29T08:28:40;1.93;;;1.07;;
9467;SDS011;4772;52.382;9.752;2022-12-29T08:31:06;2.67;;;1.13;;
9467;SDS011;4772;52.382;9.752;2022-12-29T08:33:31;2.00;;;1.00;;
9467;SDS011;4772;52.382;9.752;2022-12-29T08:35:58;2.43;;;1.10;;
9467;SDS011;4772;52.382;9.752;2022-12-29T08:38:26;4.40;;;1.40;;
9467;SDS011;4772;52.382;9.752;2022-12-29T08:40:52;1.97;;;1.57;;
9467;SDS011;4772;52.382;9.752;2022-12-29T08:43:18;5.87;;;1.60;;
9467;SDS011;4772;52.382;9.752;2022-12-29T08:45:44;3.07;;;1.30;;
9467;SDS011;4772;52.382;9.752;2022-12-29T08:48:10;2.90;;;1.70;;
9467;SDS011;4772;52.382;9.752;2022-12-29T08:50:36;3.87;;;1.30;;
9467;SDS011;4772;52.382;9.752;2022-12-29T08:53:01;4.93;;;1.50;;
9467;SDS011;4772;52.382;9.752;2022-12-29T08:55:27;3.63;;;1.40;;
9467;SDS011;4772;52.382;9.752;2022-12-29T08:57:53;2.97;;;1.30;;
9467;SDS011;4772;52.382;9.752;2022-12-29T09:00:19;3.93;;;1.47;;
9467;SDS011;4772;52.382;9.752;2022-12-29T09:02:45;5.00;;;1.57;;
9467;SDS011;4772;52.382;9.752;2022-12-29T09:05:11;4.00;;;1.40;;
9467;SDS011;4772;52.382;9.752;2022-12-29T09:07:37;3.50;;;1.40;;
9467;SDS011;4772;52.382;9.752;2022-12-29T09:10:04;3.70;;;1.20;;
9467;SDS011;4772;52.382;9.752;2022-12-29T09:12:30;3.67;;;1.60;;
9467;SDS011;4772;52.382;9.752;2022-12-29T09:14:56;2.80;;;1.50;;
9467;SDS011;4772;52.382;9.752;2022-12-29T09:17:22;3.43;;;1.73;;
9467;SDS011;4772;52.382;9.752;2022-12-29T09:20:07;4.73;;;1.60;;
9467;SDS011;4772;52.382;9.752;2022-12-29T09:22:34;2.57;;;1.50;;
9467;SDS011;4772;52.382;9.752;2022-12-29T09:25:00;5.43;;;2.20;;
9467;SDS011;4772;52.382;9.752;2022-12-29T09:27:26;5.97;;;1.57;;
9467;SDS011;4772;52.382;9.752;2022-12-29T09:29:52;5.20;;;2.10;;
9467;SDS011;4772;52.382;9.752;2022-12-29T09:32:18;4.70;;;1.87;;
9467;SDS011;4772;52.382;9.752;2022-12-29T09:34:44;2.20;;;1.60;;
9467;SDS011;4772;52.382;9.752;2022-12-29T09:37:10;3.03;;;1.90;;
9467;SDS011;4772;52.382;9.752;2022-12-29T09:39:36;3.70;;;1.77;;
9467;SDS011;4772;52.382;9.752;2022-12-29T09:42:06;5.43;;;1.90;;
9467;SDS011;4772;52.382;9.752;2022-12-29T09:47:05;2.47;;;1.50;;
9467;SDS011;4772;52.382;9.752;2022-12-29T09:49:40;4.93;;;1.67;;
9467;SDS011;4772;52.382;9.752;2022-12-29T09:52:12;7.83;;;1.87;;
9467;SDS011;4772;52.382;9.752;2022-12-29T09:54:45;2.33;;;1.40;;
9467;SDS011;4772;52.382;9.752;2022-12-29T09:57:15;3.03;;;1.50;;
9467;SDS011;4772;52.382;9.752;2022-12-29T09:59:42;2.43;;;1.73;;
9467;SDS011;4772;52.382;9.752;2022-12-29T10:02:20;3.83;;;1.73;;
9467;SDS011;4772;52.382;9.752;2022-12-29T10:04:46;2.67;;;1.60;;
9467;SDS011;4772;52.382;9.752;2022-12-29T10:07:16;2.20;;;1.50;;
9467;SDS011;4772;52.382;9.752;2022-12-29T10:20:05;1.57;;;1.47;;
9467;SDS011;4772;52.382;9.752;2022-12-29T10:25:17;3.07;;;1.60;;
9467;SDS011;4772;52.382;9.752;2022-12-29T10:27:43;1.40;;;1.30;;
9467;SDS011;4772;52.382;9.752;2022-12-29T10:30:11;2.10;;;1.40;;
9467;SDS011;4772;52.382;9.752;2022-12-29T10:32:38;2.07;;;1.30;;
9467;SDS011;4772;52.382;9.752;2022-12-29T10:35:22;3.30;;;1.23;;
9467;SDS011;4772;52.382;9.752;2022-12-29T10:40:40;1.70;;;1.27;;
9467;SDS011;4772;52.382;9.752;2022-12-29T10:45:43;1.43;;;1.20;;
9467;SDS011;4772;52.382;9.752;2022-12-29T10:48:10;3.27;;;1.60;;
9467;SDS011;4772;52.382;9.752;2022-12-29T10:50:40;1.83;;;1.30;;
9467;SDS011;4772;52.382;9.752;2022-12-29T10:53:07;5.23;;;1.50;;
9467;SDS011;4772;52.382;9.752;2022-12-29T10:55:38;4.33;;;1.80;;
9467;SDS011;4772;52.382;9.752;2022-12-29T10:58:06;4.90;;;1.70;;
9467;SDS011;4772;52.382;9.752;2022-12-29T11:00:32;4.03;;;2.00;;
9467;SDS011;4772;52.382;9.752;2022-12-29T11:03:02;3.80;;;1.60;;
9467;SDS011;4772;52.382;9.752;2022-12-29T11:08:03;3.97;;;1.77;;
9467;SDS011;4772;52.382;9.752;2022-12-29T11:13:02;5.03;;;1.70;;
9467;SDS011;4772;52.382;9.752;2022-12-29T11:15:38;4.17;;;1.97;;
9467;SDS011;4772;52.382;9.752;2022-12-29T11:18:04;4.20;;;1.63;;
9467;SDS011;4772;52.382;9.752;2022-12-29T11:20:37;5.40;;;2.00;;
9467;SDS011;4772;52.382;9.752;2022-12-29T11:23:04;2.07;;;1.50;;
9467;SDS011;4772;52.382;9.752;2022-12-29T11:25:30;4.53;;;2.00;;
9467;SDS011;4772;52.382;9.752;2022-12-29T11:28:01;2.90;;;1.70;;
9467;SDS011;4772;52.382;9.752;2022-12-29T11:30:28;3.73;;;1.63;;
9467;SDS011;4772;52.382;9.752;2022-12-29T11:32:55;3.53;;;1.60;;
9467;SDS011;4772;52.382;9.752;2022-12-29T11:37:56;3.03;;;1.50;;
9467;SDS011;4772;52.382;9.752;2022-12-29T11:40:23;2.00;;;1.40;;
9467;SDS011;4772;52.382;9.752;2022-12-29T11:43:00;2.77;;;1.60;;
9467;SDS011;4772;52.382;9.752;2022-12-29T11:45:31;4.47;;;1.77;;
9467;SDS011;4772;52.382;9.752;2022-12-29T11:47:59;3.43;;;1.63;;
9467;SDS011;4772;52.382;9.752;2022-12-29T11:50:28;4.13;;;1.63;;
9467;SDS011;4772;52.382;9.752;2022-12-29T11:53:03;4.83;;;1.80;;
9467;SDS011;4772;52.382;9.752;2022-12-29T11:55:29;6.00;;;1.87;;
9467;SDS011;4772;52.382;9.752;2022-12-29T11:57:57;4.17;;;1.60;;
9467;SDS011;4772;52.382;9.752;2022-12-29T12:00:24;3.50;;;1.70;;
9467;SDS011;4772;52.382;9.752;2022-12-29T12:02:54;2.67;;;1.40;;
9467;SDS011;4772;52.382;9.752;2022-12-29T12:07:56;3.50;;;1.73;;
9467;SDS011;4772;52.382;9.752;2022-12-29T12:10:42;4.37;;;1.70;;
9467;SDS011;4772;52.382;9.752;2022-12-29T12:16:12;4.43;;;1.80;;
9467;SDS011;4772;52.382;9.752;2022-12-29T12:26:17;4.67;;;2.00;;
9467;SDS011;4772;52.382;9.752;2022-12-29T12:29:01;6.30;;;1.97;;
9467;SDS011;4772;52.382;9.752;2022-12-29T12:34:01;7.43;;;2.00;;
9467;SDS011;4772;52.382;9.752;2022-12-29T12:36:32;4.83;;;2.00;;
9467;SDS011;4772;52.382;9.752;2022-12-29T12:39:11;4.10;;;1.60;;
9467;SDS011;4772;52.382;9.752;2022-12-29T12:41:50;5.13;;;1.53;;
9467;SDS011;4772;52.382;9.752;2022-12-29T12:54:43;5.07;;;1.87;;
9467;SDS011;4772;52.382;9.752;2022-12-29T13:02:37;6.60;;;1.73;;
9467;SDS011;4772;52.382;9.752;2022-12-29T13:05:54;4.40;;;1.80;;
9467;SDS011;4772;52.382;9.752;2022-12-29T13:15:19;4.23;;;1.77;;
9467;SDS011;4772;52.382;9.752;2022-12-29T13:18:21;3.37;;;1.83;;
9467;SDS011;4772;52.382;9.752;2022-12-29T13:20:42;5.10;;;2.33;;
9467;SDS011;4772;52.382;9.752;2022-12-29T13:34:08;4.30;;;2.07;;
9467;SDS011;4772;52.382;9.752;2022-12-29T13:36:44;3.00;;;1.63;;
9467;SDS011;4772;52.382;9.752;2022-12-29T13:41:39;6.63;;;1.90;;
9467;SDS011;4772;52.382;9.752;2022-12-29T13:44:07;3.67;;;2.00;;
9467;SDS011;4772;52.382;9.752;2022-12-29T13:46:40;4.43;;;1.83;;
9467;SDS011;4772;52.382;9.752;2022-12-29T13:49:10;5.57;;;2.00;;
9467;SDS011;4772;52.382;9.752;2022-12-29T13:51:37;5.70;;;2.10;;
9467;SDS011;4772;52.382;9.752;2022-12-29T13:54:24;5.70;;;1.90;;
9467;SDS011;4772;52.382;9.752;2022-12-29T13:59:40;5.13;;;1.90;;
9467;SDS011;4772;52.382;9.752;2022-12-29T14:04:55;4.00;;;2.20;;
9467;SDS011;4772;52.382;9.752;2022-12-29T14:07:21;5.00;;;2.37;;
9467;SDS011;4772;52.382;9.752;2022-12-29T14:09:50;4.63;;;2.37;;
9467;SDS011;4772;52.382;9.752;2022-12-29T14:14:46;5.53;;;2.30;;
9467;SDS011;4772;52.382;9.752;2022-12-29T14:17:16;3.47;;;2.10;;
9467;SDS011;4772;52.382;9.752;2022-12-29T14:19:43;4.17;;;2.17;;
9467;SDS011;4772;52.382;9.752;2022-12-29T14:22:10;5.43;;;2.20;;
9467;SDS011;4772;52.382;9.752;2022-12-29T14:24:43;8.07;;;2.60;;
9467;SDS011;4772;52.382;9.752;2022-12-29T14:34:47;8.27;;;3.00;;
9467;SDS011;4772;52.382;9.752;2022-12-29T14:37:32;5.83;;;2.83;;
9467;SDS011;4772;52.382;9.752;2022-12-29T14:42:27;8.70;;;3.23;;
9467;SDS011;4772;52.382;9.752;2022-12-29T14:44:57;7.63;;;3.30;;
9467;SDS011;4772;52.382;9.752;2022-12-29T14:47:31;5.63;;;3.07;;
9467;SDS011;4772;52.382;9.752;2022-12-29T14:52:53;4.70;;;2.40;;
9467;SDS011;4772;52.382;9.752;2022-12-29T14:55:38;8.43;;;3.33;;
9467;SDS011;4772;52.382;9.752;2022-12-29T14:58:18;6.13;;;3.17;;
9467;SDS011;4772;52.382;9.752;2022-12-29T15:00:46;6.77;;;3.07;;
9467;SDS011;4772;52.382;9.752;2022-12-29T15:03:22;5.40;;;2.10;;
9467;SDS011;4772;52.382;9.752;2022-12-29T15:05:50;6.77;;;2.60;;
9467;SDS011;4772;52.382;9.752;2022-12-29T15:08:18;7.70;;;2.70;;
9467;SDS011;4772;52.382;9.752;2022-12-29T15:13:44;4.47;;;2.27;;
9467;SDS011;4772;52.382;9.752;2022-12-29T15:16:52;7.17;;;2.50;;
9467;SDS011;4772;52.382;9.752;2022-12-29T15:19:01;7.07;;;3.00;;
9467;SDS011;4772;52.382;9.752;2022-12-29T15:21:31;4.23;;;2.07;;
9467;SDS011;4772;52.382;9.752;2022-12-29T15:23:57;7.93;;;2.70;;
9467;SDS011;4772;52.382;9.752;2022-12-29T15:26:23;7.20;;;2.67;;
9467;SDS011;4772;52.382;9.752;2022-12-29T15:29:01;6.70;;;3.03;;
9467;SDS011;4772;52.382;9.752;2022-12-29T15:31:27;7.23;;;2.93;;
9467;SDS011;4772;52.382;9.752;2022-12-29T15:33:54;5.67;;;2.50;;
9467;SDS011;4772;52.382;9.752;2022-12-29T15:36:21;6.60;;;2.23;;
9467;SDS011;4772;52.382;9.752;2022-12-29T15:38:47;5.80;;;2.70;;
9467;SDS011;4772;52.382;9.752;2022-12-29T15:43:47;7.60;;;2.87;;
9467;SDS011;4772;52.382;9.752;2022-12-29T15:46:14;7.63;;;3.00;;
9467;SDS011;4772;52.382;9.752;2022-12-29T15:48:41;8.87;;;3.50;;
9467;SDS011;4772;52.382;9.752;2022-12-29T15:54:06;9.50;;;3.37;;
9467;SDS011;4772;52.382;9.752;2022-12-29T15:56:32;10.60;;;3.77;;
9467;SDS011;4772;52.382;9.752;2022-12-29T15:58:59;7.03;;;2.80;;
9467;SDS011;4772;52.382;9.752;2022-12-29T16:01:34;8.87;;;2.70;;
9467;SDS011;4772;52.382;9.752;2022-12-29T16:04:06;6.30;;;2.33;;
9467;SDS011;4772;52.382;9.752;2022-12-29T16:06:38;7.77;;;3.33;;
9467;SDS011;4772;52.382;9.752;2022-12-29T16:09:15;4.87;;;2.97;;
9467;SDS011;4772;52.382;9.752;2022-12-29T16:11:50;5.73;;;2.73;;
9467;SDS011;4772;52.382;9.752;2022-12-29T16:14:17;7.10;;;2.70;;
9467;SDS011;4772;52.382;9.752;2022-12-29T16:16:44;7.70;;;3.03;;
9467;SDS011;4772;52.382;9.752;2022-12-29T16:19:19;6.23;;;2.43;;
9467;SDS011;4772;52.382;9.752;2022-12-29T16:21:47;4.80;;;2.40;;
9467;SDS011;4772;52.382;9.752;2022-12-29T16:24:14;4.57;;;2.40;;
9467;SDS011;4772;52.382;9.752;2022-12-29T16:26:51;9.93;;;2.60;;
9467;SDS011;4772;52.382;9.752;2022-12-29T16:29:20;11.33;;;4.03;;
9467;SDS011;4772;52.382;9.752;2022-12-29T16:31:53;7.27;;;3.70;;
9467;SDS011;4772;52.382;9.752;2022-12-29T16:34:32;10.13;;;3.53;;
9467;SDS011;4772;52.382;9.752;2022-12-29T16:36:59;6.90;;;3.30;;
9467;SDS011;4772;52.382;9.752;2022-12-29T16:41:55;6.80;;;2.43;;
9467;SDS011;4772;52.382;9.752;2022-12-29T16:44:28;6.23;;;3.00;;
9467;SDS011;4772;52.382;9.752;2022-12-29T16:49:23;7.60;;;2.77;;
9467;SDS011;4772;52.382;9.752;2022-12-29T16:51:50;8.80;;;3.20;;
9467;SDS011;4772;52.382;9.752;2022-12-29T16:54:23;12.83;;;3.23;;
9467;SDS011;4772;52.382;9.752;2022-12-29T16:56:49;6.17;;;3.10;;
9467;SDS011;4772;52.382;9.752;2022-12-29T17:01:42;10.07;;;2.90;;
9467;SDS011;4772;52.382;9.752;2022-12-29T17:04:08;9.07;;;2.50;;
9467;SDS011;4772;52.382;9.752;2022-12-29T17:06:35;5.13;;;2.43;;
9467;SDS011;4772;52.382;9.752;2022-12-29T17:09:01;7.43;;;3.53;;
9467;SDS011;4772;52.382;9.752;2022-12-29T17:11:28;7.33;;;2.53;;
9467;SDS011;4772;52.382;9.752;2022-12-29T17:14:21;5.60;;;2.53;;
9467;SDS011;4772;52.382;9.752;2022-12-29T17:16:48;9.70;;;2.93;;
9467;SDS011;4772;52.382;9.752;2022-12-29T17:19:18;6.00;;;2.60;;
9467;SDS011;4772;52.382;9.752;2022-12-29T17:21:44;7.77;;;3.20;;
9467;SDS011;4772;52.382;9.752;2022-12-29T17:24:15;8.23;;;3.10;;
9467;SDS011;4772;52.382;9.752;2022-12-29T17:26:42;8.97;;;3.60;;
9467;SDS011;4772;52.382;9.752;2022-12-29T17:29:10;5.90;;;2.00;;
9467;SDS011;4772;52.382;9.752;2022-12-29T17:31:37;5.40;;;2.33;;
9467;SDS011;4772;52.382;9.752;2022-12-29T17:34:03;6.47;;;2.30;;
9467;SDS011;4772;52.382;9.752;2022-12-29T17:36:29;8.30;;;2.37;;
9467;SDS011;4772;52.382;9.752;2022-12-29T17:38:55;5.67;;;2.47;;
9467;SDS011;4772;52.382;9.752;2022-12-29T17:41:22;9.37;;;2.03;;
9467;SDS011;4772;52.382;9.752;2022-12-29T17:43:48;5.00;;;2.10;;
9467;SDS011;4772;52.382;9.752;2022-12-29T17:46:14;6.23;;;2.00;;
9467;SDS011;4772;52.382;9.752;2022-12-29T17:48:40;4.90;;;2.20;;
9467;SDS011;4772;52.382;9.752;2022-12-29T17:51:07;7.63;;;2.20;;
9467;SDS011;4772;52.382;9.752;2022-12-29T17:53:33;4.13;;;2.10;;
9467;SDS011;4772;52.382;9.752;2022-12-29T17:55:59;6.00;;;2.37;;
9467;SDS011;4772;52.382;9.752;2022-12-29T17:58:26;4.97;;;2.13;;